<?xml version='1.0' encoding='UTF-8'?>
<gpx xmlns="http://www.topografix.com/GPX/1/1" creator="www.balnam.be" version="1.1" xmlns:xsi="http://www.w3.org/2001/XMLSchema-instance" xsi:schemaLocation="http://www.topografix.com/GPX/1/1 http://www.topografix.com/GPX/1/1/gpx.xsd">
<trk>
<name>hhstl47</name>
<cmt>q</cmt>
<desc>Thulin Sentier n°47 </desc>
<link href="https://chemins.be/thulin/sentier/47"/><trkseg>
<trkpt lat="50.443488" lon="3.723806"><time>2026-05-03T01:19:55Z</time></trkpt>
<trkpt lat="50.443529" lon="3.724203"><time>2026-05-03T01:29:55Z</time></trkpt>
<trkpt lat="50.443188" lon="3.726599"><time>2026-05-03T01:39:55Z</time></trkpt>
<trkpt lat="50.443372" lon="3.727594"><time>2026-05-03T01:49:55Z</time></trkpt>
<trkpt lat="50.443537" lon="3.729020"><time>2026-05-03T01:59:55Z</time></trkpt>
<trkpt lat="50.443518" lon="3.730322"><time>2026-05-03T02:09:55Z</time></trkpt>
<trkpt lat="50.442462" lon="3.731874"><time>2026-05-03T02:19:55Z</time></trkpt>
<trkpt lat="50.444293" lon="3.732725"><time>2026-05-03T02:29:55Z</time></trkpt>
<trkpt lat="50.444835" lon="3.730829"><time>2026-05-03T02:39:55Z</time></trkpt>
<trkpt lat="50.445258" lon="3.731595"><time>2026-05-03T02:49:55Z</time></trkpt>
<trkpt lat="50.444844" lon="3.732889"><time>2026-05-03T02:59:55Z</time></trkpt>
<trkpt lat="50.445049" lon="3.733755"><time>2026-05-03T03:09:55Z</time></trkpt>
<trkpt lat="50.444024" lon="3.734370"><time>2026-05-03T03:19:55Z</time></trkpt>
<trkpt lat="50.444211" lon="3.735986"><time>2026-05-03T03:29:55Z</time></trkpt>
<trkpt lat="50.442817" lon="3.736458"><time>2026-05-03T03:39:55Z</time></trkpt>
<trkpt lat="50.442302" lon="3.738468"><time>2026-05-03T03:49:55Z</time></trkpt>
<trkpt lat="50.443145" lon="3.738855"><time>2026-05-03T03:59:55Z</time></trkpt>
<trkpt lat="50.442302" lon="3.739863"><time>2026-05-03T04:09:55Z</time></trkpt>
<trkpt lat="50.442393" lon="3.740357"><time>2026-05-03T04:19:55Z</time></trkpt>
<trkpt lat="50.442935" lon="3.740578"><time>2026-05-03T04:29:55Z</time></trkpt>
<trkpt lat="50.443514" lon="3.742515"><time>2026-05-03T04:39:55Z</time></trkpt>
<trkpt lat="50.445345" lon="3.746501"><time>2026-05-03T04:49:55Z</time></trkpt>
<trkpt lat="50.445586" lon="3.748804"><time>2026-05-03T04:59:55Z</time></trkpt>
<trkpt lat="50.445245" lon="3.750599"><time>2026-05-03T05:09:55Z</time></trkpt>
<trkpt lat="50.445649" lon="3.751677"><time>2026-05-03T05:19:55Z</time></trkpt>
<trkpt lat="50.445630" lon="3.752807"><time>2026-05-03T05:29:55Z</time></trkpt>
<trkpt lat="50.444879" lon="3.753980"><time>2026-05-03T05:39:55Z</time></trkpt>
<trkpt lat="50.445002" lon="3.754624"><time>2026-05-03T05:49:55Z</time></trkpt>
</trkseg>
</trk>
</gpx>